createdAt,value
2024-05-09T00:00:06.696Z,0.00
2024-05-09T00:00:39.399Z,0.00
2024-05-09T00:01:04.956Z,0.00
2024-05-09T00:01:36.831Z,0.00
2024-05-09T00:02:06.937Z,0.00
2024-05-09T00:02:38.471Z,0.00
2024-05-09T00:03:10.270Z,0.00
2024-05-09T00:03:41.638Z,0.00
2024-05-09T00:04:10.987Z,0.00
2024-05-09T00:04:42.530Z,0.00
2024-05-09T00:05:13.602Z,0.00
2024-05-09T00:05:44.804Z,0.00
2024-05-09T00:06:15.489Z,0.00
2024-05-09T00:06:46.597Z,0.00
2024-05-09T00:07:17.217Z,0.00
2024-05-09T00:07:48.408Z,0.00
2024-05-09T00:08:19.055Z,0.00
2024-05-09T00:08:51.383Z,0.00
2024-05-09T00:09:20.918Z,0.00
2024-05-09T00:09:52.855Z,0.00
2024-05-09T00:10:32.654Z,0.00
2024-05-09T00:10:54.801Z,0.00
2024-05-09T00:11:24.939Z,0.00
2024-05-09T00:11:56.963Z,0.00
2024-05-09T00:12:27.296Z,0.00
2024-05-09T00:12:58.459Z,0.00
2024-05-09T00:13:28.845Z,0.00
2024-05-09T00:14:01.485Z,0.00
2024-05-09T00:14:30.881Z,0.00
2024-05-09T00:15:04.298Z,0.00
2024-05-09T00:15:33.030Z,0.00
2024-05-09T00:16:04.409Z,0.00
2024-05-09T00:16:34.863Z,0.00
2024-05-09T00:17:06.664Z,0.00
2024-05-09T00:17:37.054Z,0.00
2024-05-09T00:18:10.316Z,0.00
2024-05-09T00:18:38.960Z,0.00
2024-05-09T00:19:11.573Z,0.00
2024-05-09T00:19:40.905Z,0.00
2024-05-09T00:20:20.196Z,0.00
2024-05-09T00:20:43.315Z,0.00
2024-05-09T00:21:14.403Z,0.00
2024-05-09T00:21:44.845Z,0.00
2024-05-09T00:22:19.059Z,0.00
2024-05-09T00:22:46.945Z,0.00
2024-05-09T00:23:18.692Z,0.00
2024-05-09T00:23:48.891Z,0.00
2024-05-09T00:24:25.225Z,0.00
2024-05-09T00:24:50.981Z,0.00
2024-05-09T00:25:23.272Z,0.00
2024-05-09T00:25:53.552Z,0.00
2024-05-09T00:26:24.541Z,0.00
2024-05-09T00:26:54.853Z,0.00
2024-05-09T00:27:26.475Z,0.00
2024-05-09T00:27:57.053Z,0.00
2024-05-09T00:28:28.452Z,0.00
2024-05-09T00:28:58.884Z,0.00
2024-05-09T00:29:31.494Z,0.00
2024-05-09T00:30:01.246Z,0.00
2024-05-09T00:30:50.393Z,0.00
2024-05-09T00:31:03.190Z,0.00
2024-05-09T00:31:34.445Z,0.00
2024-05-09T00:32:04.993Z,0.00
2024-05-09T00:32:37.318Z,0.00
2024-05-09T00:33:08.433Z,0.00
2024-05-09T00:33:38.556Z,0.00
2024-05-09T00:34:09.801Z,0.00
2024-05-09T00:34:41.462Z,0.00
2024-05-09T00:35:12.025Z,0.00
2024-05-09T00:35:42.597Z,0.00
2024-05-09T00:36:13.182Z,0.00
2024-05-09T00:36:44.388Z,0.00
2024-05-09T00:37:14.921Z,0.00
2024-05-09T00:37:46.489Z,0.00
2024-05-09T00:38:16.989Z,0.00
2024-05-09T00:38:48.565Z,0.00
2024-05-09T00:39:18.873Z,0.00
2024-05-09T00:39:51.461Z,0.00
2024-05-09T00:40:30.839Z,0.00
2024-05-09T00:40:52.561Z,0.00
2024-05-09T00:41:23.407Z,0.00
2024-05-09T00:41:54.383Z,0.00
2024-05-09T00:42:36.508Z,0.00
2024-05-09T00:42:56.723Z,0.00
2024-05-09T00:43:26.978Z,0.00
2024-05-09T00:43:58.535Z,0.00
2024-05-09T00:44:29.387Z,0.00
2024-05-09T00:45:01.837Z,0.00
2024-05-09T00:45:31.786Z,0.00
2024-05-09T00:46:02.069Z,0.00
2024-05-09T00:46:32.938Z,0.00
2024-05-09T00:47:04.533Z,0.00
2024-05-09T00:47:35.644Z,0.00
2024-05-09T00:48:09.889Z,0.00
2024-05-09T00:48:37.146Z,0.00
2024-05-09T00:49:08.613Z,0.00
2024-05-09T00:49:38.944Z,0.00
2024-05-09T00:50:18.966Z,0.00
2024-05-09T00:50:41.779Z,0.00
2024-05-09T00:51:12.595Z,0.00
2024-05-09T00:51:42.845Z,0.00
2024-05-09T00:52:14.309Z,0.00
2024-05-09T00:52:45.458Z,0.00
2024-05-09T00:53:19.577Z,0.00
2024-05-09T00:53:47.271Z,0.00
2024-05-09T00:54:31.034Z,0.00
2024-05-09T00:54:48.818Z,0.00
2024-05-09T00:55:21.984Z,0.00
2024-05-09T00:55:50.996Z,0.00
2024-05-09T00:56:22.480Z,0.00
2024-05-09T00:56:52.813Z,0.00
2024-05-09T00:57:24.430Z,0.00
2024-05-09T00:57:54.845Z,0.00
2024-05-09T00:58:26.443Z,0.00
2024-05-09T00:58:57.030Z,0.00
2024-05-09T00:59:28.418Z,0.00
2024-05-09T00:59:59.106Z,0.00
2024-05-09T01:00:38.899Z,0.00
2024-05-09T01:01:01.404Z,0.00
2024-05-09T01:01:32.496Z,0.00
2024-05-09T01:02:03.073Z,0.00
2024-05-09T01:02:34.839Z,0.00
2024-05-09T01:03:05.194Z,0.00
2024-05-09T01:03:37.496Z,0.00
2024-05-09T01:04:07.139Z,0.00
2024-05-09T01:04:38.547Z,0.00
2024-05-09T01:05:09.514Z,0.00
2024-05-09T01:05:41.934Z,0.00
2024-05-09T01:06:11.819Z,0.00
2024-05-09T01:06:42.947Z,0.00
2024-05-09T01:07:12.911Z,0.00
2024-05-09T01:07:44.575Z,0.00
2024-05-09T01:08:14.937Z,0.00
2024-05-09T01:08:46.738Z,0.00
2024-05-09T01:09:16.878Z,0.00
2024-05-09T01:09:48.444Z,0.00
2024-05-09T01:10:27.622Z,0.00
2024-05-09T01:10:51.684Z,0.00
2024-05-09T01:11:21.161Z,0.00
2024-05-09T01:11:52.600Z,0.00
2024-05-09T01:12:23.664Z,0.00
2024-05-09T01:12:54.342Z,0.00
2024-05-09T01:13:24.903Z,0.00
2024-05-09T01:13:57.059Z,0.00
2024-05-09T01:14:27.262Z,0.00
2024-05-09T01:14:58.438Z,0.00
2024-05-09T01:15:29.850Z,0.00
2024-05-09T01:16:01.696Z,0.00
2024-05-09T01:16:30.989Z,0.00
2024-05-09T01:17:02.589Z,0.00
2024-05-09T01:17:33.043Z,0.00
2024-05-09T01:18:04.964Z,0.00
2024-05-09T01:18:35.183Z,0.00
2024-05-09T01:19:06.772Z,0.00
2024-05-09T01:19:37.239Z,0.00
2024-05-09T01:20:10.986Z,0.00
2024-05-09T01:20:42.497Z,0.00
2024-05-09T01:21:11.622Z,0.00
2024-05-09T01:21:40.871Z,0.00
2024-05-09T01:22:12.927Z,0.00
2024-05-09T01:22:43.153Z,0.00
2024-05-09T01:23:16.133Z,0.00
2024-05-09T01:23:44.852Z,0.00
2024-05-09T01:24:18.697Z,0.00
2024-05-09T01:24:46.858Z,0.00
2024-05-09T01:25:19.260Z,0.00
2024-05-09T01:25:49.063Z,0.00
2024-05-09T01:26:21.528Z,0.00
2024-05-09T01:26:50.972Z,0.00
2024-05-09T01:27:22.579Z,0.00
2024-05-09T01:27:53.111Z,0.00
2024-05-09T01:28:25.067Z,0.00
2024-05-09T01:28:54.976Z,0.00
2024-05-09T01:29:26.436Z,0.00
2024-05-09T01:29:57.009Z,0.00
2024-05-09T01:30:34.906Z,0.00
2024-05-09T01:30:58.965Z,0.00
2024-05-09T01:31:31.385Z,0.00
2024-05-09T01:32:01.125Z,0.00
2024-05-09T01:32:32.616Z,0.00
2024-05-09T01:33:03.171Z,0.00
2024-05-09T01:33:34.807Z,0.00
2024-05-09T01:34:04.972Z,0.00
2024-05-09T01:34:37.426Z,0.00
2024-05-09T01:35:07.457Z,0.00
2024-05-09T01:35:38.574Z,0.00
2024-05-09T01:36:09.181Z,0.00
2024-05-09T01:36:41.440Z,0.00
2024-05-09T01:37:10.915Z,0.00
2024-05-09T01:37:42.582Z,0.00
2024-05-09T01:38:13.435Z,0.00
2024-05-09T01:38:44.493Z,0.00
2024-05-09T01:39:14.846Z,0.00
2024-05-09T01:39:46.449Z,0.00
2024-05-09T01:40:22.099Z,0.00
2024-05-09T01:40:49.546Z,0.00
2024-05-09T01:41:19.255Z,0.00
2024-05-09T01:41:51.409Z,0.00
2024-05-09T01:42:21.128Z,0.00
2024-05-09T01:42:52.447Z,0.00
2024-05-09T01:43:22.824Z,0.00
2024-05-09T01:43:54.446Z,0.00
2024-05-09T01:44:24.898Z,0.00
2024-05-09T01:44:56.741Z,0.00
2024-05-09T01:45:27.801Z,0.00
2024-05-09T01:45:57.856Z,0.00
2024-05-09T01:46:28.853Z,0.00
2024-05-09T01:47:01.544Z,0.00
2024-05-09T01:47:31.109Z,0.00
2024-05-09T01:48:03.191Z,0.00
2024-05-09T01:48:33.728Z,0.00
2024-05-09T01:49:04.644Z,0.00
2024-05-09T01:49:35.131Z,0.00
2024-05-09T01:50:09.195Z,0.00
2024-05-09T01:50:40.723Z,0.00
2024-05-09T01:51:08.744Z,0.00
2024-05-09T01:51:38.878Z,0.00
2024-05-09T01:52:11.683Z,0.00
2024-05-09T01:52:40.854Z,0.00
2024-05-09T01:53:13.066Z,0.00
2024-05-09T01:53:43.530Z,0.00
2024-05-09T01:54:15.102Z,0.00
2024-05-09T01:54:45.104Z,0.00
2024-05-09T01:55:18.254Z,0.00
2024-05-09T01:55:46.905Z,0.00
2024-05-09T01:56:19.106Z,0.00
2024-05-09T01:56:48.896Z,0.00
2024-05-09T01:57:21.551Z,0.00
2024-05-09T01:57:50.831Z,0.00
2024-05-09T01:58:22.413Z,0.00
2024-05-09T01:58:52.919Z,0.00
2024-05-09T01:59:25.178Z,0.00
2024-05-09T01:59:54.857Z,0.00
2024-05-09T02:00:38.762Z,0.00
2024-05-09T02:00:57.391Z,0.00
2024-05-09T02:01:29.042Z,0.00
2024-05-09T02:01:59.231Z,0.00
2024-05-09T02:02:31.481Z,0.00
2024-05-09T02:03:02.244Z,0.00
2024-05-09T02:03:33.081Z,0.00
2024-05-09T02:04:03.318Z,0.00
2024-05-09T02:04:34.528Z,0.00
2024-05-09T02:05:06.684Z,0.00
2024-05-09T02:05:37.010Z,0.00
2024-05-09T02:06:08.326Z,0.00
2024-05-09T02:06:38.635Z,0.00
2024-05-09T02:07:09.355Z,0.00
2024-05-09T02:07:41.731Z,0.00
2024-05-09T02:08:11.812Z,0.00
2024-05-09T02:08:42.843Z,0.00
2024-05-09T02:09:12.846Z,0.00
2024-05-09T02:09:44.511Z,0.00
2024-05-09T02:10:20.455Z,0.00
2024-05-09T02:10:47.963Z,0.00
2024-05-09T02:11:16.941Z,0.00
2024-05-09T02:11:48.571Z,0.00
2024-05-09T02:12:19.295Z,0.00
2024-05-09T02:12:51.466Z,0.00
2024-05-09T02:13:21.230Z,0.00
2024-05-09T02:13:52.760Z,0.00
2024-05-09T02:14:22.898Z,0.00
2024-05-09T02:14:54.724Z,0.00
2024-05-09T02:15:25.889Z,0.00
2024-05-09T02:15:56.798Z,0.00
2024-05-09T02:16:26.802Z,0.00
2024-05-09T02:16:58.488Z,0.00
2024-05-09T02:17:29.254Z,0.00
2024-05-09T02:18:01.653Z,0.00
2024-05-09T02:18:31.168Z,0.00
2024-05-09T02:19:02.591Z,0.00
2024-05-09T02:19:33.056Z,0.00
2024-05-09T02:20:06.041Z,0.00
2024-05-09T02:20:36.883Z,0.00
2024-05-09T02:21:06.576Z,0.00
2024-05-09T02:21:37.995Z,0.00
2024-05-09T02:22:08.428Z,0.00
2024-05-09T02:22:38.850Z,0.00
2024-05-09T02:23:11.593Z,0.00
2024-05-09T02:23:41.019Z,0.00
2024-05-09T02:24:12.598Z,0.00
2024-05-09T02:24:42.844Z,0.00
2024-05-09T02:25:15.008Z,0.00
2024-05-09T02:25:44.939Z,0.00
2024-05-09T02:26:18.371Z,0.00
2024-05-09T02:26:47.290Z,0.00
2024-05-09T02:27:18.512Z,0.00
2024-05-09T02:27:48.816Z,0.00
2024-05-09T02:28:21.917Z,0.00
2024-05-09T02:28:50.947Z,0.00
2024-05-09T02:29:23.022Z,0.00
2024-05-09T02:29:52.943Z,0.00
2024-05-09T02:30:35.825Z,0.00
2024-05-09T02:30:55.398Z,0.00
2024-05-09T02:31:26.424Z,0.00
2024-05-09T02:31:57.015Z,0.00
2024-05-09T02:32:28.650Z,0.00
2024-05-09T02:32:58.938Z,0.00
2024-05-09T02:33:31.711Z,0.00
2024-05-09T02:34:01.979Z,0.00
2024-05-09T02:34:32.741Z,0.00
2024-05-09T02:35:03.608Z,0.00
2024-05-09T02:35:35.095Z,0.00
2024-05-09T02:36:04.820Z,0.00
2024-05-09T02:36:37.437Z,0.00
2024-05-09T02:37:06.884Z,0.00
2024-05-09T02:37:38.434Z,0.00
2024-05-09T02:38:08.988Z,0.00
2024-05-09T02:38:41.506Z,0.00
2024-05-09T02:39:11.048Z,0.00
2024-05-09T02:39:42.443Z,0.00
2024-05-09T02:40:15.106Z,0.00
2024-05-09T02:40:44.425Z,0.00
2024-05-09T02:41:14.914Z,0.00
2024-05-09T02:41:46.743Z,0.00
2024-05-09T02:42:17.089Z,0.00
2024-05-09T02:42:48.400Z,0.00
2024-05-09T02:43:19.006Z,0.00
2024-05-09T02:43:52.121Z,0.00
2024-05-09T02:44:20.830Z,0.00
2024-05-09T02:44:52.460Z,0.00
2024-05-09T02:45:23.670Z,0.00
2024-05-09T02:45:55.528Z,0.00
2024-05-09T02:46:24.887Z,0.00
2024-05-09T02:46:56.163Z,0.00
2024-05-09T02:47:27.646Z,0.00
2024-05-09T02:47:58.244Z,0.00
2024-05-09T02:48:30.203Z,0.00
2024-05-09T02:49:01.842Z,0.00
2024-05-09T02:49:31.543Z,0.00
2024-05-09T02:50:02.074Z,0.00
2024-05-09T02:50:38.616Z,0.00
2024-05-09T02:51:04.053Z,0.00
2024-05-09T02:51:35.716Z,0.00
2024-05-09T02:52:05.827Z,0.00
2024-05-09T02:52:37.402Z,0.00
2024-05-09T02:53:08.571Z,0.00
2024-05-09T02:53:39.477Z,0.00
2024-05-09T02:54:11.060Z,0.00
2024-05-09T02:54:41.336Z,0.00
2024-05-09T02:55:12.712Z,0.00
2024-05-09T02:55:43.671Z,0.00
2024-05-09T02:56:13.886Z,0.00
2024-05-09T02:56:45.418Z,0.00
2024-05-09T02:57:20.481Z,0.00
2024-05-09T02:57:47.405Z,0.00
2024-05-09T02:58:17.807Z,0.00
2024-05-09T02:58:49.731Z,0.00
2024-05-09T02:59:21.474Z,0.00
2024-05-09T02:59:51.468Z,0.00
2024-05-09T03:00:34.654Z,0.00
2024-05-09T03:00:54.759Z,0.00
2024-05-09T03:01:24.054Z,0.00
2024-05-09T03:01:56.191Z,0.00
2024-05-09T03:02:25.968Z,0.00
2024-05-09T03:02:58.153Z,0.00
2024-05-09T03:03:28.180Z,0.00
2024-05-09T03:04:00.104Z,0.00
2024-05-09T03:04:31.719Z,0.00
2024-05-09T03:05:02.135Z,0.00
2024-05-09T03:05:33.913Z,0.00
2024-05-09T03:06:03.712Z,0.00
2024-05-09T03:06:34.449Z,0.00
2024-05-09T03:07:05.469Z,0.00
2024-05-09T03:07:36.325Z,0.00
2024-05-09T03:08:07.786Z,0.00
2024-05-09T03:08:38.522Z,0.00
2024-05-09T03:09:09.657Z,0.00
2024-05-09T03:09:41.083Z,0.00
2024-05-09T03:10:18.527Z,0.00
2024-05-09T03:10:42.247Z,0.00
2024-05-09T03:11:13.633Z,0.00
2024-05-09T03:11:43.942Z,0.00
2024-05-09T03:12:16.289Z,0.00
2024-05-09T03:12:46.108Z,0.00
2024-05-09T03:13:17.808Z,0.00
2024-05-09T03:13:48.029Z,0.00
2024-05-09T03:14:19.732Z,0.00
2024-05-09T03:14:50.983Z,0.00
2024-05-09T03:15:23.928Z,0.00
2024-05-09T03:15:52.147Z,0.00
2024-05-09T03:16:23.746Z,0.00
2024-05-09T03:16:53.970Z,0.00
2024-05-09T03:17:25.614Z,0.00
2024-05-09T03:17:56.929Z,0.00
2024-05-09T03:18:27.962Z,0.00
2024-05-09T03:18:58.339Z,0.00
2024-05-09T03:19:29.821Z,0.00
2024-05-09T03:20:01.622Z,0.00
2024-05-09T03:20:35.948Z,0.00
2024-05-09T03:21:01.975Z,0.00
2024-05-09T03:21:33.757Z,0.00
2024-05-09T03:22:04.332Z,0.00
2024-05-09T03:22:35.670Z,0.00
2024-05-09T03:23:06.354Z,0.00
2024-05-09T03:23:37.641Z,0.00
2024-05-09T03:24:08.132Z,0.00
2024-05-09T03:24:39.519Z,0.00
2024-05-09T03:25:11.742Z,0.00
2024-05-09T03:25:41.534Z,0.00
2024-05-09T03:26:12.224Z,0.00
2024-05-09T03:26:43.492Z,0.00
2024-05-09T03:27:14.158Z,0.00
2024-05-09T03:27:45.420Z,0.00
2024-05-09T03:28:17.834Z,0.00
2024-05-09T03:28:48.064Z,0.00
2024-05-09T03:29:18.087Z,0.00
2024-05-09T03:29:49.480Z,0.00
2024-05-09T03:30:30.908Z,0.00
2024-05-09T03:30:51.466Z,0.00
2024-05-09T03:31:21.945Z,0.00
2024-05-09T03:31:53.573Z,0.00
2024-05-09T03:32:23.872Z,0.00
2024-05-09T03:32:55.542Z,0.00
2024-05-09T03:33:26.691Z,0.00
2024-05-09T03:33:57.659Z,0.00
2024-05-09T03:34:28.029Z,0.00
2024-05-09T03:35:01.043Z,0.85
2024-05-09T03:35:31.666Z,0.36
2024-05-09T03:36:01.620Z,0.85
2024-05-09T03:36:32.270Z,0.85
2024-05-09T03:37:04.916Z,1.22
2024-05-09T03:37:34.121Z,0.85
2024-05-09T03:38:05.738Z,0.85
2024-05-09T03:38:36.528Z,0.00
2024-05-09T03:39:07.593Z,0.36
2024-05-09T03:39:38.148Z,1.22
2024-05-09T03:40:14.713Z,1.22
2024-05-09T03:40:41.041Z,1.22
2024-05-09T03:41:11.595Z,1.22
2024-05-09T03:41:42.091Z,1.71
2024-05-09T03:42:14.482Z,1.71
2024-05-09T03:42:44.057Z,1.71
2024-05-09T03:43:15.708Z,1.71
2024-05-09T03:43:46.162Z,2.08
2024-05-09T03:44:17.680Z,1.71
2024-05-09T03:44:48.151Z,1.71
2024-05-09T03:45:20.999Z,2.57
2024-05-09T03:45:51.027Z,2.08
2024-05-09T03:46:21.271Z,2.94
2024-05-09T03:46:52.007Z,2.57
2024-05-09T03:47:23.860Z,2.57
2024-05-09T03:47:54.324Z,3.79
2024-05-09T03:48:26.385Z,3.43
2024-05-09T03:48:56.816Z,3.43
2024-05-09T03:49:27.890Z,2.94
2024-05-09T03:49:58.115Z,4.28
2024-05-09T03:50:35.241Z,4.28
2024-05-09T03:51:01.081Z,3.43
2024-05-09T03:51:32.458Z,4.28
2024-05-09T03:52:02.353Z,3.43
2024-05-09T03:52:34.168Z,4.28
2024-05-09T03:53:04.477Z,3.79
2024-05-09T03:53:35.552Z,3.79
2024-05-09T03:54:06.264Z,4.77
2024-05-09T03:54:37.991Z,5.14
2024-05-09T03:55:08.233Z,4.77
2024-05-09T03:55:41.334Z,4.77
2024-05-09T03:56:11.254Z,4.77
2024-05-09T03:56:41.689Z,5.63
2024-05-09T03:57:12.374Z,5.14
2024-05-09T03:57:43.912Z,5.63
2024-05-09T03:58:14.062Z,5.14
2024-05-09T03:58:46.376Z,5.14
2024-05-09T03:59:17.767Z,5.99
2024-05-09T03:59:47.742Z,5.14
2024-05-09T04:00:30.069Z,5.63
2024-05-09T04:00:49.861Z,5.63
2024-05-09T04:01:21.146Z,5.99
2024-05-09T04:01:51.833Z,6.48
2024-05-09T04:02:22.521Z,6.48
2024-05-09T04:02:53.631Z,6.48
2024-05-09T04:03:24.164Z,5.99
2024-05-09T04:03:55.839Z,7.34
2024-05-09T04:04:26.545Z,6.85
2024-05-09T04:04:59.074Z,6.85
2024-05-09T04:05:28.632Z,7.70
2024-05-09T04:05:59.635Z,7.70
2024-05-09T04:06:31.387Z,7.70
2024-05-09T04:07:01.730Z,7.70
2024-05-09T04:07:32.038Z,7.70
2024-05-09T04:08:04.873Z,8.19
2024-05-09T04:08:34.297Z,8.56
2024-05-09T04:09:05.832Z,8.56
2024-05-09T04:09:37.006Z,8.56
2024-05-09T04:10:11.126Z,8.56
2024-05-09T04:10:38.557Z,8.19
2024-05-09T04:11:10.867Z,9.05
2024-05-09T04:11:42.068Z,9.54
2024-05-09T04:12:12.930Z,8.56
2024-05-09T04:12:42.111Z,9.54
2024-05-09T04:13:13.750Z,9.05
2024-05-09T04:13:44.185Z,9.54
2024-05-09T04:14:15.745Z,9.91
2024-05-09T04:14:46.047Z,9.91
2024-05-09T04:15:18.511Z,10.39
2024-05-09T04:15:48.416Z,9.91
2024-05-09T04:16:19.563Z,11.25
2024-05-09T04:16:51.150Z,11.62
2024-05-09T04:17:22.871Z,11.62
2024-05-09T04:17:52.219Z,12.11
2024-05-09T04:18:24.513Z,12.97
2024-05-09T04:18:54.221Z,12.48
2024-05-09T04:19:25.870Z,13.33
2024-05-09T04:19:56.379Z,13.33
2024-05-09T04:20:36.626Z,14.31
2024-05-09T04:20:58.060Z,14.68
2024-05-09T04:21:29.759Z,15.53
2024-05-09T04:22:01.238Z,16.39
2024-05-09T04:22:31.770Z,16.39
2024-05-09T04:23:02.115Z,17.73
2024-05-09T04:23:33.752Z,17.73
2024-05-09T04:24:04.073Z,18.11
2024-05-09T04:24:35.933Z,19.94
2024-05-09T04:25:06.091Z,19.94
2024-05-09T04:25:38.143Z,20.80
2024-05-09T04:26:08.052Z,21.65
2024-05-09T04:26:39.850Z,21.65
2024-05-09T04:27:11.391Z,22.87
2024-05-09T04:27:41.634Z,23.36
2024-05-09T04:28:12.231Z,23.85
2024-05-09T04:28:43.516Z,24.22
2024-05-09T04:29:14.421Z,24.22
2024-05-09T04:29:45.673Z,24.71
2024-05-09T04:30:34.590Z,24.22
2024-05-09T04:30:48.026Z,24.22
2024-05-09T04:31:18.285Z,24.22
2024-05-09T04:31:49.619Z,24.71
2024-05-09T04:32:21.508Z,23.85
2024-05-09T04:32:51.819Z,24.22
2024-05-09T04:33:22.736Z,24.22
2024-05-09T04:33:53.888Z,24.71
2024-05-09T04:34:24.200Z,24.71
2024-05-09T04:34:55.713Z,25.07
2024-05-09T04:35:26.898Z,25.94
2024-05-09T04:35:58.264Z,25.56
2024-05-09T04:36:28.262Z,25.94
2024-05-09T04:37:04.669Z,26.42
2024-05-09T04:37:31.465Z,26.79
2024-05-09T04:38:01.576Z,26.42
2024-05-09T04:38:40.058Z,26.42
2024-05-09T04:39:03.645Z,26.42
2024-05-09T04:39:34.085Z,26.42
2024-05-09T04:40:08.964Z,26.79
2024-05-09T04:40:38.262Z,27.28
2024-05-09T04:41:07.715Z,27.28
2024-05-09T04:41:38.061Z,27.28
2024-05-09T04:42:09.934Z,27.65
2024-05-09T04:42:41.565Z,28.14
2024-05-09T04:43:12.576Z,28.63
2024-05-09T04:43:42.104Z,28.63
2024-05-09T04:44:13.675Z,28.99
2024-05-09T04:44:43.992Z,28.63
2024-05-09T04:45:18.114Z,28.63
2024-05-09T04:45:46.262Z,29.48
2024-05-09T04:46:16.989Z,29.85
2024-05-09T04:46:48.523Z,29.48
2024-05-09T04:47:20.037Z,28.99
2024-05-09T04:47:51.163Z,28.99
2024-05-09T04:48:22.870Z,29.48
2024-05-09T04:48:52.272Z,28.99
2024-05-09T04:49:24.193Z,30.34
2024-05-09T04:49:54.155Z,28.99
2024-05-09T04:50:36.030Z,28.63
2024-05-09T04:50:56.499Z,29.48
2024-05-09T04:51:28.009Z,28.99
2024-05-09T04:51:58.029Z,30.34
2024-05-09T04:52:29.730Z,30.70
2024-05-09T04:53:01.196Z,30.34
2024-05-09T04:53:32.765Z,31.56
2024-05-09T04:54:02.486Z,30.70
2024-05-09T04:54:36.569Z,30.70
2024-05-09T04:55:03.957Z,31.56
2024-05-09T04:55:36.209Z,31.19
2024-05-09T04:56:05.923Z,31.56
2024-05-09T04:56:37.585Z,31.56
2024-05-09T04:57:08.406Z,31.19
2024-05-09T04:57:39.588Z,30.70
2024-05-09T04:58:11.113Z,30.70
2024-05-09T04:58:41.602Z,32.05
2024-05-09T04:59:11.937Z,31.56
2024-05-09T04:59:43.581Z,31.56
2024-05-09T05:00:21.921Z,31.56
2024-05-09T05:00:46.538Z,32.05
2024-05-09T05:01:18.745Z,32.05
2024-05-09T05:01:47.768Z,32.42
2024-05-09T05:02:18.038Z,32.42
2024-05-09T05:02:50.176Z,32.05
2024-05-09T05:03:21.288Z,33.39
2024-05-09T05:03:51.932Z,32.42
2024-05-09T05:04:22.157Z,33.76
2024-05-09T05:04:53.835Z,34.25
2024-05-09T05:05:24.516Z,34.62
2024-05-09T05:05:55.779Z,35.11
2024-05-09T05:06:26.288Z,35.48
2024-05-09T05:06:59.758Z,35.97
2024-05-09T05:07:28.456Z,35.97
2024-05-09T05:07:59.758Z,35.48
2024-05-09T05:08:31.116Z,35.97
2024-05-09T05:09:02.740Z,36.33
2024-05-09T05:09:31.976Z,36.33
2024-05-09T05:10:05.773Z,36.82
2024-05-09T05:10:36.822Z,36.82
2024-05-09T05:11:07.637Z,38.17
2024-05-09T05:11:36.290Z,38.53
2024-05-09T05:12:07.675Z,39.02
2024-05-09T05:12:38.265Z,39.88
2024-05-09T05:13:10.487Z,40.73
2024-05-09T05:13:41.741Z,41.10
2024-05-09T05:14:11.673Z,41.10
2024-05-09T05:14:42.002Z,41.96
2024-05-09T05:15:14.596Z,41.59
2024-05-09T05:15:43.951Z,41.96
2024-05-09T05:16:15.753Z,43.31
2024-05-09T05:16:46.012Z,43.31
2024-05-09T05:17:17.599Z,45.02
2024-05-09T05:17:48.142Z,45.51
2024-05-09T05:18:20.205Z,47.22
2024-05-09T05:18:51.072Z,47.71
2024-05-09T05:19:21.545Z,48.56
2024-05-09T05:19:52.994Z,48.93
2024-05-09T05:20:31.042Z,49.42
2024-05-09T05:20:53.929Z,49.79
2024-05-09T05:21:25.694Z,50.28
2024-05-09T05:21:56.233Z,51.14
2024-05-09T05:22:27.619Z,52.48
2024-05-09T05:22:58.193Z,52.48
2024-05-09T05:23:29.640Z,52.85
2024-05-09T05:24:01.097Z,53.34
2024-05-09T05:24:31.809Z,53.70
2024-05-09T05:25:01.979Z,54.56
2024-05-09T05:25:35.239Z,55.05
2024-05-09T05:26:04.021Z,55.41
2024-05-09T05:26:35.611Z,55.90
2024-05-09T05:27:06.340Z,56.76
2024-05-09T05:27:37.574Z,57.25
2024-05-09T05:28:07.924Z,58.11
2024-05-09T05:28:39.671Z,57.25
2024-05-09T05:29:10.968Z,58.97
2024-05-09T05:29:42.090Z,59.33
2024-05-09T05:30:21.105Z,59.33
2024-05-09T05:30:43.542Z,60.68
2024-05-09T05:31:14.028Z,60.68
2024-05-09T05:31:45.644Z,61.53
2024-05-09T05:32:21.248Z,62.02
2024-05-09T05:32:47.914Z,62.02
2024-05-09T05:33:18.560Z,63.24
2024-05-09T05:33:49.682Z,63.73
2024-05-09T05:34:20.933Z,63.73
2024-05-09T05:34:51.939Z,64.96
2024-05-09T05:35:23.278Z,65.45
2024-05-09T05:35:53.952Z,66.31
2024-05-09T05:36:24.728Z,67.16
2024-05-09T05:36:55.544Z,67.16
2024-05-09T05:37:25.995Z,67.65
2024-05-09T05:37:57.925Z,67.65
2024-05-09T05:38:28.646Z,67.16
2024-05-09T05:38:59.492Z,67.65
2024-05-09T05:39:30.963Z,68.51
2024-05-09T05:40:02.095Z,68.51
2024-05-09T05:40:37.033Z,69.36
2024-05-09T05:41:03.700Z,70.22
2024-05-09T05:41:34.000Z,71.56
2024-05-09T05:42:06.828Z,71.56
2024-05-09T05:42:36.901Z,72.79
2024-05-09T05:43:07.884Z,73.65
2024-05-09T05:43:37.971Z,73.28
2024-05-09T05:44:09.642Z,73.65
2024-05-09T05:44:40.993Z,75.85
2024-05-09T05:45:13.072Z,76.34
2024-05-09T05:45:41.999Z,76.34
2024-05-09T05:46:13.576Z,76.70
2024-05-09T05:46:44.022Z,76.70
2024-05-09T05:47:15.618Z,77.19
2024-05-09T05:47:46.383Z,77.56
2024-05-09T05:48:19.418Z,77.19
2024-05-09T05:48:48.087Z,77.56
2024-05-09T05:49:19.846Z,77.56
2024-05-09T05:49:51.166Z,78.90
2024-05-09T05:50:27.926Z,78.90
2024-05-09T05:50:52.393Z,80.25
2024-05-09T05:51:24.484Z,81.10
2024-05-09T05:51:53.928Z,82.33
2024-05-09T05:52:25.583Z,82.82
2024-05-09T05:52:56.262Z,84.53
2024-05-09T05:53:27.730Z,86.24
2024-05-09T05:53:58.398Z,86.24
2024-05-09T05:54:31.550Z,87.96
2024-05-09T05:55:01.481Z,90.16
2024-05-09T05:55:32.035Z,91.87
2024-05-09T05:56:02.019Z,93.58
2024-05-09T05:56:34.084Z,95.42
2024-05-09T05:57:04.324Z,97.50
2024-05-09T05:57:38.846Z,97.50
2024-05-09T05:58:05.962Z,99.34
2024-05-09T05:58:36.961Z,101.41
2024-05-09T05:59:08.637Z,102.27
2024-05-09T05:59:38.970Z,104.48
2024-05-09T06:00:15.097Z,107.04
2024-05-09T06:00:44.427Z,108.39
2024-05-09T06:01:13.510Z,110.59
2024-05-09T06:01:42.957Z,110.96
2024-05-09T06:02:14.557Z,112.67
2024-05-09T06:02:45.179Z,113.16
2024-05-09T06:03:19.294Z,114.87
2024-05-09T06:03:47.322Z,117.07
2024-05-09T06:04:18.655Z,119.27
2024-05-09T06:04:49.314Z,120.50
2024-05-09T06:05:22.700Z,123.19
2024-05-09T06:05:51.065Z,125.27
2024-05-09T06:06:22.965Z,126.12
2024-05-09T06:06:53.084Z,127.96
2024-05-09T06:07:24.676Z,129.68
2024-05-09T06:07:55.064Z,130.90
2024-05-09T06:08:30.166Z,132.24
2024-05-09T06:08:57.062Z,133.10
2024-05-09T06:09:28.766Z,136.16
2024-05-09T06:09:59.091Z,138.73
2024-05-09T06:10:37.881Z,138.73
2024-05-09T06:11:01.646Z,142.64
2024-05-09T06:11:32.798Z,145.21
2024-05-09T06:12:03.500Z,147.41
2024-05-09T06:12:35.811Z,149.98
2024-05-09T06:13:05.072Z,152.19
2024-05-09T06:13:36.962Z,154.75
2024-05-09T06:14:07.447Z,157.44
2024-05-09T06:14:38.921Z,159.53
2024-05-09T06:15:09.244Z,163.07
2024-05-09T06:15:43.334Z,166.99
2024-05-09T06:16:11.224Z,171.27
2024-05-09T06:16:43.028Z,179.59
2024-05-09T06:17:13.285Z,183.87
2024-05-09T06:17:45.120Z,188.64
2024-05-09T06:18:15.722Z,192.07
2024-05-09T06:18:47.829Z,194.27
2024-05-09T06:19:17.252Z,198.67
2024-05-09T06:19:48.963Z,197.81
2024-05-09T06:20:24.075Z,201.61
2024-05-09T06:20:51.757Z,208.58
2024-05-09T06:21:21.200Z,256.78
2024-05-09T06:21:52.682Z,399.91
2024-05-09T06:22:22.976Z,411.17
2024-05-09T06:22:54.667Z,415.08
2024-05-09T06:23:25.126Z,415.57
2024-05-09T06:23:57.144Z,414.23
2024-05-09T06:24:27.306Z,413.74
2024-05-09T06:24:58.760Z,412.52
2024-05-09T06:25:30.347Z,413.74
2024-05-09T06:26:02.870Z,412.52
2024-05-09T06:26:31.196Z,413.37
2024-05-09T06:27:03.057Z,413.37
2024-05-09T06:27:33.333Z,410.32
2024-05-09T06:28:04.998Z,404.20
2024-05-09T06:28:35.849Z,397.71
2024-05-09T06:29:06.787Z,389.88
2024-05-09T06:29:37.065Z,383.40
2024-05-09T06:30:14.430Z,379.98
2024-05-09T06:30:42.352Z,374.71
2024-05-09T06:31:11.828Z,374.35
2024-05-09T06:31:41.293Z,371.78
2024-05-09T06:32:12.980Z,370.43
2024-05-09T06:32:43.107Z,367.37
2024-05-09T06:33:22.016Z,367.37
2024-05-09T06:33:45.180Z,367.86
2024-05-09T06:34:18.471Z,368.23
2024-05-09T06:34:47.962Z,367.01
2024-05-09T06:35:18.726Z,365.17
2024-05-09T06:35:49.767Z,362.60
2024-05-09T06:36:21.400Z,362.60
2024-05-09T06:36:51.875Z,359.54
2024-05-09T06:37:22.050Z,360.03
2024-05-09T06:37:54.189Z,356.49
2024-05-09T06:38:24.181Z,354.40
2024-05-09T06:38:55.692Z,353.55
2024-05-09T06:39:26.104Z,353.91
2024-05-09T06:39:57.722Z,352.20
2024-05-09T06:40:36.768Z,352.57
2024-05-09T06:41:00.278Z,352.57
2024-05-09T06:41:31.123Z,353.91
2024-05-09T06:42:01.983Z,355.26
2024-05-09T06:42:32.400Z,355.63
2024-05-09T06:43:03.970Z,357.34
2024-05-09T06:43:35.180Z,359.54
2024-05-09T06:44:06.420Z,362.12
2024-05-09T06:44:36.474Z,360.40
2024-05-09T06:45:07.991Z,362.60
2024-05-09T06:45:38.968Z,361.74